Terminal Aerodrome Forecast
Issued by NWS Des Moines, IA

Home | Current Version | Previous Version | Text Only | Print | Product List | Glossary On
Versions: 1 2 3 4 5 6 7 8 9 10 11 12 13 14 15 16 17 18 19 20 21 22 23 24 25 26 27 28
959
FTUS43 KDMX 171137
TAFALO
TAF
KALO 171137Z 1712/1812 32007KT 2SM BR OVC004
     FM171500 31008KT 5SM BR OVC007
     FM172200 29010KT P6SM SCT007 OVC011
     FM180300 25006KT P6SM SCT012 BKN025
     FM180600 24004KT P6SM SCT025=

USA.gov is the U.S. government's official web portal to all federal, state and local government web resources and services.